createdAt,value
2023-02-16T00:02:41.599Z,28.45
2023-02-16T00:09:24.880Z,29.73
2023-02-16T00:16:13.644Z,29.88
2023-02-16T00:22:56.519Z,28.52
2023-02-16T00:29:38.844Z,30.70
2023-02-16T00:36:25.116Z,30.50
2023-02-16T00:43:13.602Z,30.42
2023-02-16T00:49:56.141Z,30.40
2023-02-16T00:56:39.467Z,30.52
2023-02-16T01:03:28.166Z,30.20
2023-02-16T01:10:30.302Z,29.98
2023-02-16T01:17:12.632Z,28.75
2023-02-16T01:23:54.906Z,29.13
2023-02-16T01:30:37.418Z,30.27
2023-02-16T01:37:21.608Z,30.25
2023-02-16T01:44:17.732Z,30.45
2023-02-16T01:51:34.346Z,29.35
2023-02-16T01:58:26.184Z,27.33
2023-02-16T02:05:35.893Z,29.90
2023-02-16T02:12:46.287Z,26.30
2023-02-16T02:27:20.507Z,27.10
2023-02-16T02:34:22.031Z,27.08
2023-02-16T02:41:18.783Z,26.17
2023-02-16T02:48:02.211Z,26.95
2023-02-16T02:55:04.727Z,26.13
2023-02-16T03:01:52.278Z,24.95
2023-02-16T03:08:37.420Z,25.70
2023-02-16T03:15:22.068Z,23.33
2023-02-16T03:22:23.435Z,28.08
2023-02-16T03:29:18.198Z,25.95
2023-02-16T03:36:01.715Z,24.55
2023-02-16T03:42:51.519Z,25.50
2023-02-16T03:49:33.871Z,26.85
2023-02-16T03:56:16.661Z,26.05
2023-02-16T04:02:58.951Z,25.45
2023-02-16T04:09:41.202Z,24.58
2023-02-16T04:16:23.585Z,24.50
2023-02-16T04:23:05.881Z,24.25
2023-02-16T04:29:48.235Z,24.30
2023-02-16T04:36:31.500Z,23.85
2023-02-16T04:43:13.800Z,22.85
2023-02-16T04:49:56.192Z,22.92
2023-02-16T04:56:38.578Z,23.08
2023-02-16T05:03:20.856Z,23.17
2023-02-16T05:10:03.525Z,23.45
2023-02-16T05:16:46.465Z,22.92
2023-02-16T05:23:28.718Z,24.92
2023-02-16T05:30:11.884Z,21.05
2023-02-16T05:36:55.079Z,22.10
2023-02-16T05:43:37.501Z,20.55
2023-02-16T05:50:19.783Z,20.55
2023-02-16T05:57:02.106Z,25.35
2023-02-16T06:03:44.607Z,20.35
2023-02-16T06:10:27.008Z,19.17
2023-02-16T06:17:09.283Z,18.27
2023-02-16T06:23:51.908Z,20.83
2023-02-16T06:30:35.318Z,19.30
2023-02-16T06:37:17.648Z,19.77
2023-02-16T06:44:06.823Z,21.02
2023-02-16T06:50:49.390Z,19.27
2023-02-16T06:57:31.688Z,21.33
2023-02-16T07:04:14.038Z,18.85
2023-02-16T07:10:56.540Z,18.73
2023-02-16T07:17:38.856Z,17.92
2023-02-16T07:24:21.316Z,18.15
2023-02-16T07:31:11.702Z,16.67
2023-02-16T07:37:54.164Z,16.30
2023-02-16T07:44:36.459Z,15.63
2023-02-16T07:51:23.647Z,15.73
2023-02-16T07:58:06.115Z,15.40
2023-02-16T08:04:49.123Z,14.68
2023-02-16T08:11:31.721Z,15.32
2023-02-16T08:18:14.145Z,14.95
2023-02-16T08:24:56.712Z,15.68
2023-02-16T08:31:39.266Z,16.13
2023-02-16T08:38:21.688Z,16.00
2023-02-16T08:45:05.436Z,15.98
2023-02-16T08:51:54.614Z,16.52
2023-02-16T08:58:37.966Z,15.93
2023-02-16T09:05:20.264Z,16.80
2023-02-16T09:12:02.901Z,15.48
2023-02-16T09:18:46.774Z,16.25
2023-02-16T09:25:29.070Z,15.57
2023-02-16T09:32:11.935Z,14.32
2023-02-16T09:38:56.237Z,14.52
2023-02-16T09:45:46.023Z,14.65
2023-02-16T09:52:47.215Z,13.38
2023-02-16T09:59:57.064Z,14.32
2023-02-16T10:07:01.853Z,14.23
2023-02-16T10:13:53.922Z,12.73
2023-02-16T10:20:38.544Z,13.60
2023-02-16T10:27:22.645Z,12.57
2023-02-16T10:34:59.056Z,12.90
2023-02-16T10:41:48.312Z,12.50
2023-02-16T10:48:31.508Z,11.85
2023-02-16T10:55:13.845Z,9.85
2023-02-16T11:01:59.386Z,10.55
2023-02-16T11:09:01.458Z,9.10
2023-02-16T11:15:50.125Z,8.10
2023-02-16T11:22:38.147Z,8.57
2023-02-16T11:29:21.440Z,8.00
2023-02-16T11:36:18.528Z,8.18
2023-02-16T11:43:02.107Z,8.48
2023-02-16T11:49:44.447Z,7.60
2023-02-16T11:56:29.440Z,7.78
2023-02-16T12:03:57.008Z,8.27
2023-02-16T12:10:52.974Z,7.90
2023-02-16T12:17:44.717Z,7.70
2023-02-16T12:25:03.769Z,7.93
2023-02-16T12:32:17.583Z,7.63
2023-02-16T12:39:27.534Z,6.93
2023-02-16T12:46:29.155Z,6.90
2023-02-16T12:53:14.472Z,7.20
2023-02-16T13:00:09.373Z,7.05
2023-02-16T13:07:01.049Z,6.60
2023-02-16T13:13:46.656Z,7.32
2023-02-16T13:20:29.406Z,7.85
2023-02-16T13:27:34.560Z,8.23
2023-02-16T13:34:47.272Z,7.32
2023-02-16T13:42:05.346Z,7.72
2023-02-16T13:48:50.830Z,7.32
2023-02-16T13:55:38.804Z,6.75
2023-02-16T14:02:51.453Z,8.23
2023-02-16T14:09:45.757Z,9.00
2023-02-16T14:16:31.612Z,8.75
2023-02-16T14:23:29.481Z,9.43
2023-02-16T14:30:26.986Z,8.68
2023-02-16T14:37:16.143Z,7.65
2023-02-16T14:44:04.517Z,8.30
2023-02-16T14:51:22.846Z,8.02
2023-02-16T14:58:31.853Z,7.78
2023-02-16T15:05:20.110Z,7.43
2023-02-16T15:12:23.580Z,6.57
2023-02-16T15:19:12.535Z,7.35
2023-02-16T15:26:03.158Z,7.63
2023-02-16T15:32:55.466Z,8.30
2023-02-16T15:39:51.861Z,7.40
2023-02-16T15:46:43.470Z,7.88
2023-02-16T15:53:53.714Z,8.63
2023-02-16T16:00:36.044Z,7.57
2023-02-16T16:07:24.975Z,7.88
2023-02-16T16:14:07.446Z,6.63
2023-02-16T16:21:00.236Z,9.80
2023-02-16T16:27:47.981Z,10.27
2023-02-16T16:34:39.582Z,7.43
2023-02-16T16:41:28.040Z,9.63
2023-02-16T16:48:25.597Z,10.57
2023-02-16T16:55:22.870Z,7.20
2023-02-16T17:02:05.155Z,9.50
2023-02-16T17:08:47.942Z,10.00
2023-02-16T17:15:45.414Z,9.20
2023-02-16T17:22:27.709Z,9.02
2023-02-16T17:29:10.306Z,8.93
2023-02-16T17:35:52.580Z,9.98
2023-02-16T17:42:35.193Z,10.20
2023-02-16T17:49:17.514Z,8.45
2023-02-16T17:56:00.754Z,6.70
2023-02-16T18:02:43.050Z,7.28
2023-02-16T18:09:25.338Z,9.00
2023-02-16T18:16:10.465Z,8.20
2023-02-16T18:22:53.439Z,9.07
2023-02-16T18:29:35.984Z,6.60
2023-02-16T18:36:18.311Z,7.00
2023-02-16T18:43:00.764Z,7.97
2023-02-16T18:49:43.053Z,7.90
2023-02-16T18:56:25.714Z,9.63
2023-02-16T19:03:08.051Z,8.32
2023-02-16T19:09:50.345Z,9.93
2023-02-16T19:16:32.660Z,7.47
2023-02-16T19:23:14.991Z,8.75
2023-02-16T19:29:57.350Z,7.88
2023-02-16T19:36:40.077Z,7.38
2023-02-16T19:43:22.835Z,7.72
2023-02-16T19:50:05.744Z,8.80
2023-02-16T19:56:48.320Z,7.15
2023-02-16T20:03:30.669Z,6.65
2023-02-16T20:10:12.963Z,7.65
2023-02-16T20:16:55.520Z,8.52
2023-02-16T20:23:38.489Z,7.82
2023-02-16T20:30:24.180Z,9.32
2023-02-16T20:37:06.502Z,9.27
2023-02-16T20:43:49.058Z,9.82
2023-02-16T20:50:31.612Z,9.52
2023-02-16T20:57:26.088Z,9.10
2023-02-16T21:04:10.343Z,10.73
2023-02-16T21:10:52.911Z,9.90
2023-02-16T21:17:35.461Z,9.30
2023-02-16T21:24:18.147Z,9.45
2023-02-16T21:31:04.206Z,9.05
2023-02-16T21:37:46.598Z,9.15
2023-02-16T21:44:28.913Z,9.15
2023-02-16T21:51:12.759Z,10.30
2023-02-16T21:57:57.386Z,8.25
2023-02-16T22:04:39.770Z,9.25
2023-02-16T22:11:22.124Z,7.57
2023-02-16T22:18:07.287Z,6.45
2023-02-16T22:24:49.626Z,4.88
2023-02-16T22:31:32.688Z,4.30
2023-02-16T22:38:15.059Z,4.55
2023-02-16T22:44:57.393Z,4.50
2023-02-16T22:51:39.746Z,3.70
2023-02-16T22:58:22.473Z,3.78
2023-02-16T23:05:05.475Z,3.97
2023-02-16T23:11:49.204Z,4.20
2023-02-16T23:18:31.582Z,3.80
2023-02-16T23:25:32.551Z,3.75
2023-02-16T23:32:14.874Z,4.10
2023-02-16T23:39:01.585Z,3.78
2023-02-16T23:45:43.911Z,3.60
2023-02-16T23:52:26.200Z,3.95
2023-02-16T23:59:08.486Z,3.92
